Time;durP1;ratioP1;P1;durP2;ratioP2;P2;SDS_P1;SDS_P2;PMS_P1;PMS_P2;Temp;Humidity;BMP_temperature;BMP_pressure;BME280_temperature;BME280_humidity;BME280_pressure;Samples;Min_cycle;Max_cycle;Signal;HPM_P1;HPM_P2
2023/10/03 00:02:22;;;;;;;0.65;0.65;;;;;;;20.54;66.86;101007.16;5066302;28;20043;-78
2023/10/03 00:04:48;;;;;;;0.57;0.57;;;;;;;20.52;66.92;101001.00;5078766;28;20111;-78
2023/10/03 00:07:15;;;;;;;2.72;1.30;;;;;;;20.48;67.05;101002.16;5076695;28;20024;-79
2023/10/03 00:09:41;;;;;;;2.60;1.38;;;;;;;20.43;67.02;100998.88;5074036;28;20043;-78
2023/10/03 00:12:08;;;;;;;0.88;0.65;;;;;;;20.42;67.05;100997.13;5072607;28;20081;-78
2023/10/03 00:14:34;;;;;;;1.08;0.40;;;;;;;20.43;67.00;100993.50;5074503;28;20024;-78
2023/10/03 00:17:00;;;;;;;2.28;1.48;;;;;;;20.40;66.98;100982.88;5071184;28;20040;-78
2023/10/03 00:19:27;;;;;;;16.08;0.90;;;;;;;20.41;66.81;100980.13;5071546;28;20031;-78
2023/10/03 00:21:53;;;;;;;1.95;1.20;;;;;;;20.43;66.87;100977.34;5074860;28;20438;-77
2023/10/03 00:24:19;;;;;;;0.25;0.25;;;;;;;20.39;66.55;100986.53;5074490;28;20021;-78
2023/10/03 00:26:45;;;;;;;0.10;0.10;;;;;;;20.38;66.55;100974.91;5075232;28;20028;-78
2023/10/03 00:29:17;;;;;;;1.83;1.75;;;;;;;20.30;66.80;100964.59;5077542;28;20044;-78
2023/10/03 00:31:44;;;;;;;2.20;0.65;;;;;;;20.35;66.71;100969.72;5070365;28;20036;-79
2023/10/03 00:34:14;;;;;;;3.40;1.30;;;;;;;20.28;66.77;100963.81;5072564;28;20080;-77
2023/10/03 00:36:41;;;;;;;0.22;0.22;;;;;;;20.27;66.75;100956.69;5072417;28;20613;-78
2023/10/03 00:39:08;;;;;;;0.10;0.10;;;;;;;20.24;66.84;100967.66;5070251;28;20016;-78
2023/10/03 00:41:35;;;;;;;1.65;0.75;;;;;;;20.23;66.68;100959.69;5073188;28;20032;-77
2023/10/03 00:44:03;;;;;;;6.82;2.15;;;;;;;20.22;66.79;100961.50;5078841;28;20065;-77
2023/10/03 00:46:32;;;;;;;0.30;0.30;;;;;;;20.21;66.89;100962.44;5070418;28;20568;-78
2023/10/03 00:49:05;;;;;;;1.75;1.65;;;;;;;20.19;66.72;100954.47;5069977;28;20036;-78
2023/10/03 00:51:31;;;;;;;0.20;0.20;;;;;;;20.19;66.92;100943.72;5075716;28;20039;-77
2023/10/03 00:53:59;;;;;;;0.30;0.30;;;;;;;20.26;66.69;100937.97;5073893;28;20031;-78
2023/10/03 00:56:25;;;;;;;0.88;0.88;;;;;;;20.24;66.52;100924.63;5070938;28;20395;-78
2023/10/03 00:58:51;;;;;;;1.20;1.20;;;;;;;20.23;66.52;100925.56;5072503;28;20582;-78
2023/10/03 01:01:18;;;;;;;0.20;0.20;;;;;;;20.22;66.49;100923.84;5071543;28;20110;-77
2023/10/03 01:03:47;;;;;;;0.93;0.93;;;;;;;20.24;66.45;100918.34;5070349;28;20036;-78
2023/10/03 01:06:15;;;;;;;1.05;1.05;;;;;;;20.22;66.61;100905.00;5071216;28;20100;-78
2023/10/03 01:08:49;;;;;;;3.75;1.88;;;;;;;20.24;66.58;100895.03;5070601;28;20028;-78
2023/10/03 01:11:18;;;;;;;0.30;0.30;;;;;;;20.17;66.76;100890.97;5072010;28;20028;-79
2023/10/03 01:16:29;;;;;;;1.20;1.20;;;;;;;20.09;66.98;100882.47;5110631;27;20063;-78
2023/10/03 01:18:59;;;;;;;0.45;0.45;;;;;;;20.09;66.94;100882.47;5093937;28;20131;-78
2023/10/03 01:21:26;;;;;;;0.10;0.10;;;;;;;20.09;66.83;100877.97;5093524;28;20036;-78
2023/10/03 01:23:54;;;;;;;1.75;1.50;;;;;;;20.06;66.81;100862.00;5090860;28;20040;-78
2023/10/03 01:26:21;;;;;;;0.60;0.60;;;;;;;20.02;66.92;100866.69;5088908;28;20414;-79
2023/10/03 01:28:48;;;;;;;2.17;1.10;;;;;;;20.02;66.98;100866.69;5088375;28;20115;-79
2023/10/03 01:31:14;;;;;;;2.63;1.08;;;;;;;20.02;66.88;100877.47;5095323;28;20058;-78
2023/10/03 01:33:40;;;;;;;0.15;0.15;;;;;;;19.94;67.41;100879.75;5091161;28;20111;-78
2023/10/03 01:36:06;;;;;;;0.20;0.20;;;;;;;19.94;67.35;100871.69;5089143;28;20028;-78
2023/10/03 01:38:33;;;;;;;1.50;1.40;;;;;;;19.95;67.36;100870.72;5092415;28;20452;-79
2023/10/03 01:41:00;;;;;;;0.70;0.70;;;;;;;19.95;67.28;100867.16;5091167;28;20119;-78
2023/10/03 01:43:27;;;;;;;1.55;0.60;;;;;;;19.94;67.17;100869.00;5085408;28;20560;-78
2023/10/03 01:45:55;;;;;;;1.23;1.15;;;;;;;19.88;67.71;100875.59;5093051;28;20490;-78
2023/10/03 01:48:21;;;;;;;1.08;1.08;;;;;;;19.92;67.78;100860.13;5096173;28;20039;-78
2023/10/03 01:50:50;;;;;;;0.52;0.50;;;;;;;19.91;67.73;100868.31;5093825;28;20086;-78
2023/10/03 01:53:17;;;;;;;0.88;0.88;;;;;;;19.96;67.71;100867.09;5094650;28;20025;-78
2023/10/03 01:55:44;;;;;;;2.17;0.80;;;;;;;19.97;67.63;100863.41;5091919;28;20076;-78
2023/10/03 01:58:10;;;;;;;2.92;2.70;;;;;;;20.04;67.53;100869.31;5098045;28;20036;-77
2023/10/03 02:00:37;;;;;;;1.33;1.33;;;;;;;20.06;67.57;100866.53;5097643;28;20513;-77
2023/10/03 02:03:05;;;;;;;1.80;1.70;;;;;;;20.15;67.31;100860.59;5097053;28;20514;-78
2023/10/03 02:05:34;;;;;;;0.80;0.73;;;;;;;20.18;67.17;100855.88;5094907;28;20115;-78
2023/10/03 02:08:07;;;;;;;4.47;1.27;;;;;;;20.23;67.03;100817.97;5094712;28;20035;-78
2023/10/03 02:10:35;;;;;;;1.33;1.23;;;;;;;20.32;66.99;100829.97;5091090;28;20513;-78
2023/10/03 02:13:09;;;;;;;0.75;0.75;;;;;;;20.31;66.97;100826.44;5094516;28;20047;-78
2023/10/03 02:15:38;;;;;;;0.95;0.88;;;;;;;20.41;66.51;100828.56;5090795;28;20025;-77
2023/10/03 02:18:05;;;;;;;4.22;1.40;;;;;;;20.57;66.53;100829.31;5088319;28;20067;-78
2023/10/03 02:20:38;;;;;;;1.58;1.48;;;;;;;20.61;66.42;100819.22;5095242;28;20028;-77
2023/10/03 02:23:05;;;;;;;0.98;0.98;;;;;;;20.72;66.05;100819.44;5088189;28;20036;-78
2023/10/03 02:25:37;;;;;;;0.75;0.75;;;;;;;20.92;65.67;100820.91;5090174;28;20028;-78
2023/10/03 02:28:05;;;;;;;0.47;0.47;;;;;;;21.11;65.23;100819.69;5080070;28;20543;-78
2023/10/03 02:30:31;;;;;;;1.70;1.65;;;;;;;21.26;64.59;100816.00;5069716;28;20497;-78
2023/10/03 02:33:07;;;;;;;0.63;0.63;;;;;;;21.34;64.44;100797.47;5081845;28;20507;-78
2023/10/03 02:35:33;;;;;;;0.85;0.85;;;;;;;21.40;64.28;100803.47;5076568;28;20556;-78
2023/10/03 02:37:59;;;;;;;0.93;0.77;;;;;;;21.44;64.14;100813.06;5076416;28;20040;-78
2023/10/03 02:40:28;;;;;;;0.25;0.25;;;;;;;21.44;64.46;100802.28;5079197;28;20025;-77
2023/10/03 02:42:54;;;;;;;0.65;0.65;;;;;;;21.45;64.22;100802.16;5077024;28;20115;-79
2023/10/03 02:45:23;;;;;;;1.20;1.20;;;;;;;21.48;64.45;100803.78;5077922;28;20020;-77
2023/10/03 02:47:51;;;;;;;0.30;0.30;;;;;;;21.62;64.09;100795.69;5075621;28;20372;-77
2023/10/03 02:50:18;;;;;;;2.08;1.05;;;;;;;21.60;64.04;100802.16;5077887;28;20454;-78
2023/10/03 02:52:45;;;;;;;1.85;1.75;;;;;;;21.68;64.01;100804.34;5073437;28;20065;-78
2023/10/03 02:55:14;;;;;;;0.93;0.90;;;;;;;21.75;63.60;100811.03;5084039;28;20028;-78
2023/10/03 02:57:41;;;;;;;0.63;0.63;;;;;;;21.69;64.04;100825.78;5086298;28;20043;-78
2023/10/03 03:00:15;;;;;;;6.07;1.05;;;;;;;21.62;63.99;100817.25;5084425;28;20034;-78
2023/10/03 03:02:46;;;;;;;0.98;0.98;;;;;;;21.71;63.58;100812.19;5074521;28;20063;-77
2023/10/03 03:05:15;;;;;;;0.10;0.10;;;;;;;21.69;63.44;100819.53;5078040;28;20509;-78
2023/10/03 03:07:44;;;;;;;0.77;0.77;;;;;;;21.68;63.46;100828.59;5070850;28;20024;-78
2023/10/03 03:10:18;;;;;;;1.13;0.60;;;;;;;21.71;62.95;100828.38;5071369;28;20028;-78
2023/10/03 03:12:44;;;;;;;0.13;0.13;;;;;;;21.78;63.03;100827.00;5075456;28;20036;-78
2023/10/03 03:15:22;;;;;;;0.65;0.65;;;;;;;21.88;62.72;100816.47;5066711;28;20029;-78
2023/10/03 03:17:48;;;;;;;0.50;0.50;;;;;;;21.72;62.80;100833.69;5072978;28;20036;-78
2023/10/03 03:20:18;;;;;;;5.18;0.82;;;;;;;21.77;62.32;100825.28;5074115;28;20032;-78
2023/10/03 03:22:47;;;;;;;0.88;0.88;;;;;;;21.78;62.33;100827.88;5073308;28;20050;-78
2023/10/03 03:25:24;;;;;;;0.10;0.10;;;;;;;21.59;62.86;100844.41;5083697;28;20104;-78
2023/10/03 03:27:53;;;;;;;0.28;0.28;;;;;;;21.54;63.64;100835.75;5074137;28;20381;-78
2023/10/03 03:33:06;;;;;;;0.15;0.15;;;;;;;21.52;64.22;100850.28;5068721;28;20372;-78
2023/10/03 03:35:39;;;;;;;1.38;1.27;;;;;;;21.48;64.50;100855.91;5052906;28;20029;-78
2023/10/03 03:38:07;;;;;;;0.10;0.10;;;;;;;21.44;64.96;100850.81;5047590;28;20524;-78
2023/10/03 03:40:34;;;;;;;0.20;0.20;;;;;;;21.34;65.56;100855.91;5047600;28;20033;-79
2023/10/03 03:43:03;;;;;;;8.52;2.65;;;;;;;21.36;65.60;100853.13;5048323;28;20047;-78
2023/10/03 03:45:30;;;;;;;0.88;0.57;;;;;;;21.09;66.62;100862.91;5045989;28;20035;-78
2023/10/03 03:47:56;;;;;;;0.15;0.15;;;;;;;21.22;66.20;100873.75;5053034;28;20025;-78
2023/10/03 03:50:23;;;;;;;0.80;0.80;;;;;;;21.14;66.47;100866.16;5046866;28;20509;-78
2023/10/03 03:52:51;;;;;;;0.22;0.22;;;;;;;21.02;67.08;100856.16;5046879;28;20053;-78
2023/10/03 03:55:17;;;;;;;0.08;0.08;;;;;;;21.17;66.63;100867.78;5052232;28;20111;-78
2023/10/03 03:57:46;;;;;;;2.85;1.05;;;;;;;21.21;66.51;100874.72;5049656;28;20053;-78
2023/10/03 04:00:18;;;;;;;0.00;0.00;;;;;;;20.96;67.51;100864.63;5045132;28;20091;-78
2023/10/03 04:02:44;;;;;;;1.63;0.47;;;;;;;21.03;67.28;100868.66;5047362;28;20025;-78
2023/10/03 04:05:12;;;;;;;1.15;1.10;;;;;;;21.15;67.02;100861.66;5045846;28;20029;-78
2023/10/03 04:07:39;;;;;;;0.10;0.10;;;;;;;21.15;66.88;100865.19;5045943;28;20098;-79
2023/10/03 04:10:09;;;;;;;1.52;1.42;;;;;;;20.82;68.07;100874.47;5048505;28;20056;-78
2023/10/03 04:12:41;;;;;;;0.90;0.90;;;;;;;20.82;68.07;100870.91;5047411;28;20112;-79
2023/10/03 04:15:12;;;;;;;0.60;0.60;;;;;;;20.80;67.96;100886.31;5046675;28;20068;-78
2023/10/03 04:17:39;;;;;;;0.10;0.10;;;;;;;20.92;67.48;100861.28;5045691;28;20052;-77
2023/10/03 04:20:14;;;;;;;28.67;1.08;;;;;;;20.92;67.61;100869.38;5046424;28;20661;-79
2023/10/03 04:22:41;;;;;;;0.38;0.38;;;;;;;20.78;67.30;100881.00;5049329;28;20492;-77
2023/10/03 04:25:13;;;;;;;0.22;0.22;;;;;;;20.82;67.14;100862.81;5044502;28;20029;-78
2023/10/03 04:27:39;;;;;;;0.85;0.50;;;;;;;20.93;66.69;100868.38;5050167;28;20488;-78
2023/10/03 04:30:09;;;;;;;0.22;0.22;;;;;;;20.93;66.31;100871.09;5046796;28;20463;-79
2023/10/03 04:32:35;;;;;;;0.10;0.10;;;;;;;20.95;65.97;100855.69;5051646;28;20057;-78
2023/10/03 04:35:05;;;;;;;0.57;0.57;;;;;;;20.89;65.98;100872.25;5047742;28;20029;-79
2023/10/03 04:37:31;;;;;;;0.60;0.60;;;;;;;20.70;65.87;100869.81;5046188;28;20037;-78
2023/10/03 04:39:57;;;;;;;0.00;0.00;;;;;;;20.77;65.38;100870.31;5048409;28;20037;-78
2023/10/03 04:42:23;;;;;;;1.30;0.65;;;;;;;20.77;64.87;100870.31;5046128;28;20032;-78
2023/10/03 04:44:49;;;;;;;0.77;0.75;;;;;;;20.82;64.52;100882.56;5033797;28;20040;-78
2023/10/03 04:47:16;;;;;;;4.35;2.28;;;;;;;20.62;64.24;100878.38;5032585;28;20040;-78
2023/10/03 04:49:42;;;;;;;0.35;0.30;;;;;;;20.63;63.92;100877.38;5033694;28;20021;-79
2023/10/03 04:52:08;;;;;;;0.20;0.20;;;;;;;20.78;63.84;100875.59;5032895;28;20037;-78
2023/10/03 04:54:34;;;;;;;0.20;0.20;;;;;;;20.76;64.02;100882.03;5033497;28;20049;-77
2023/10/03 04:57:00;;;;;;;0.20;0.20;;;;;;;20.78;64.15;100886.38;5033835;28;20039;-78
2023/10/03 04:59:26;;;;;;;0.13;0.13;;;;;;;20.82;64.21;100877.16;5033188;28;20444;-78
2023/10/03 05:01:53;;;;;;;0.30;0.30;;;;;;;20.77;64.50;100894.56;5031922;28;20369;-78
2023/10/03 05:04:19;;;;;;;0.10;0.10;;;;;;;20.80;64.39;100889.84;5031823;28;20030;-78
2023/10/03 05:06:47;;;;;;;0.10;0.10;;;;;;;20.81;64.46;100906.84;5032277;28;20037;-77
2023/10/03 05:09:13;;;;;;;0.10;0.10;;;;;;;20.76;64.62;100903.59;5033489;28;20029;-78
2023/10/03 05:11:41;;;;;;;0.10;0.10;;;;;;;20.62;65.03;100901.72;5030939;28;20033;-78
2023/10/03 05:14:08;;;;;;;0.10;0.10;;;;;;;20.77;64.88;100908.03;5029974;28;20049;-78
2023/10/03 05:16:35;;;;;;;0.20;0.20;;;;;;;20.63;65.24;100890.84;5030437;28;20304;-78
2023/10/03 05:19:01;;;;;;;0.20;0.20;;;;;;;20.56;65.67;100897.59;5033148;28;20111;-79
2023/10/03 05:21:27;;;;;;;10.27;1.15;;;;;;;20.68;65.34;100906.72;5029268;28;20025;-78
2023/10/03 05:23:54;;;;;;;0.20;0.20;;;;;;;20.56;65.23;100907.47;5030719;28;20120;-78
2023/10/03 05:26:21;;;;;;;2.50;1.05;;;;;;;20.66;65.33;100892.47;5032659;28;20373;-77
2023/10/03 05:28:47;;;;;;;0.10;0.10;;;;;;;20.80;64.73;100897.06;5030872;28;20467;-79
2023/10/03 05:31:15;;;;;;;0.10;0.10;;;;;;;20.73;65.26;100909.19;5033268;28;20025;-78
2023/10/03 05:33:42;;;;;;;0.10;0.10;;;;;;;20.78;65.18;100891.75;5032509;28;20025;-78
2023/10/03 05:36:16;;;;;;;0.10;0.10;;;;;;;20.84;64.87;100895.91;5033109;28;20041;-79
2023/10/03 05:38:42;;;;;;;0.70;0.70;;;;;;;20.70;65.02;100923.66;5034832;28;20021;-79
2023/10/03 05:41:18;;;;;;;0.40;0.40;;;;;;;20.77;64.89;100913.41;5033009;28;20018;-79
2023/10/03 05:43:44;;;;;;;0.47;0.47;;;;;;;20.78;64.85;100912.44;5031429;28;20376;-81
2023/10/03 05:46:11;;;;;;;0.10;0.10;;;;;;;20.79;64.75;100919.56;5028700;28;20029;-76
2023/10/03 05:48:37;;;;;;;0.10;0.10;;;;;;;20.85;64.70;100933.50;5027884;28;20041;-79
2023/10/03 05:51:03;;;;;;;0.20;0.20;;;;;;;20.78;64.92;100934.00;5028773;28;20041;-78
2023/10/03 05:53:30;;;;;;;0.43;0.40;;;;;;;20.67;65.30;100938.19;5030932;28;20405;-78
2023/10/03 05:55:57;;;;;;;0.10;0.10;;;;;;;20.61;65.36;100952.00;5031744;28;20124;-78
2023/10/03 05:58:24;;;;;;;0.17;0.17;;;;;;;20.67;65.27;100946.25;5029607;28;20108;-78
2023/10/03 06:00:50;;;;;;;0.32;0.32;;;;;;;20.52;66.50;100960.63;5028804;28;20051;-78
2023/10/03 06:03:16;;;;;;;0.73;0.73;;;;;;;20.35;66.57;100984.03;5030568;28;20037;-79
2023/10/03 06:05:42;;;;;;;0.10;0.10;;;;;;;20.36;66.72;100961.56;5031410;28;20045;-79
2023/10/03 06:08:12;;;;;;;0.10;0.10;;;;;;;20.17;67.00;100959.06;5029727;28;20052;-78
2023/10/03 06:10:38;;;;;;;0.20;0.20;;;;;;;20.12;66.68;100960.31;5032774;28;20379;-79
2023/10/03 06:13:09;;;;;;;0.05;0.05;;;;;;;20.27;65.93;100959.41;5034563;28;20036;-79
2023/10/03 06:15:36;;;;;;;0.10;0.10;;;;;;;20.23;65.75;100962.38;5029992;28;20484;-78
2023/10/03 06:18:03;;;;;;;1.88;1.75;;;;;;;20.22;65.39;100961.50;5029886;28;20059;-80
2023/10/03 06:20:30;;;;;;;7.13;0.63;;;;;;;20.33;65.13;100977.00;5029694;28;20026;-79
2023/10/03 06:22:56;;;;;;;0.30;0.30;;;;;;;20.28;65.19;100993.41;5031422;28;20036;-78
2023/10/03 06:25:23;;;;;;;0.30;0.30;;;;;;;20.19;64.97;101004.72;5033359;28;20447;-79
2023/10/03 06:27:50;;;;;;;0.10;0.10;;;;;;;20.20;64.80;101004.63;5033168;28;20108;-83
2023/10/03 06:30:18;;;;;;;0.10;0.10;;;;;;;20.19;64.64;101007.41;5028750;28;20168;-78
2023/10/03 06:32:45;;;;;;;1.15;1.15;;;;;;;20.17;64.37;100999.41;5028702;28;20480;-78
2023/10/03 06:35:12;;;;;;;0.10;0.10;;;;;;;20.23;64.54;101003.59;5031107;28;20507;-79
2023/10/03 06:37:38;;;;;;;5.18;1.75;;;;;;;19.88;64.84;101014.56;5033414;28;20022;-79
2023/10/03 06:40:06;;;;;;;0.10;0.10;;;;;;;20.14;64.75;101012.22;5031443;28;20025;-78
2023/10/03 06:42:34;;;;;;;0.10;0.10;;;;;;;20.09;64.80;101022.34;5028166;28;20033;-79
2023/10/03 06:45:01;;;;;;;0.00;0.00;;;;;;;20.17;64.40;101006.63;5030026;28;20040;-77
2023/10/03 06:47:29;;;;;;;0.10;0.10;;;;;;;20.28;64.31;101008.72;5027660;28;20045;-78
2023/10/03 06:49:55;;;;;;;0.80;0.63;;;;;;;20.33;64.26;101025.44;5027282;28;20025;-79
2023/10/03 06:52:21;;;;;;;0.20;0.20;;;;;;;20.25;64.37;101017.81;5028309;28;20094;-79
2023/10/03 06:54:48;;;;;;;1.13;1.13;;;;;;;20.05;66.47;101021.66;5030998;28;20516;-79
2023/10/03 06:57:14;;;;;;;0.17;0.17;;;;;;;20.11;66.73;101052.72;5027784;28;20041;-78
2023/10/03 06:59:41;;;;;;;0.10;0.10;;;;;;;19.80;69.26;101079.47;5026903;28;20034;-78
2023/10/03 07:02:08;;;;;;;0.10;0.10;;;;;;;19.82;68.36;101069.50;5025931;28;20436;-79
2023/10/03 07:04:34;;;;;;;0.10;0.10;;;;;;;19.72;69.99;101057.50;5028462;28;20029;-77
2023/10/03 07:07:01;;;;;;;0.10;0.10;;;;;;;19.58;71.25;101079.78;5023245;28;20033;-79
2023/10/03 07:09:27;;;;;;;0.20;0.20;;;;;;;19.61;71.43;101079.59;5025944;28;20038;-79
2023/10/03 07:11:54;;;;;;;0.10;0.10;;;;;;;19.42;72.55;101101.22;5029277;28;20033;-79
2023/10/03 07:14:20;;;;;;;0.10;0.10;;;;;;;19.45;71.22;101098.41;5027995;28;20034;-75
2023/10/03 07:16:48;;;;;;;0.10;0.10;;;;;;;19.28;73.40;101095.69;5030927;28;20056;-77
2023/10/03 07:19:15;;;;;;;0.10;0.10;;;;;;;19.44;72.67;101101.13;5028832;28;20128;-78
2023/10/03 07:21:42;;;;;;;1.38;1.30;;;;;;;19.25;73.68;101107.47;5025863;28;20022;-76
2023/10/03 07:24:08;;;;;;;0.10;0.10;;;;;;;19.26;73.89;101111.91;5029041;28;20041;-77
2023/10/03 07:26:34;;;;;;;0.45;0.45;;;;;;;19.22;73.50;101124.63;5029437;28;20116;-78
2023/10/03 07:29:02;;;;;;;0.10;0.10;;;;;;;18.85;74.89;101130.97;5029551;28;20103;-77
2023/10/03 07:31:29;;;;;;;7.28;1.48;;;;;;;18.93;73.68;101139.56;5030937;28;20507;-75
2023/10/03 07:33:56;;;;;;;0.10;0.10;;;;;;;18.89;73.87;101133.44;5028449;28;20053;-78
2023/10/03 07:36:23;;;;;;;0.10;0.10;;;;;;;18.85;74.20;101152.47;5027962;28;20025;-78
2023/10/03 07:38:49;;;;;;;0.28;0.28;;;;;;;18.73;74.77;101162.88;5030554;28;20040;-78
2023/10/03 07:41:17;;;;;;;0.10;0.10;;;;;;;18.60;74.49;101151.00;5029613;28;20106;-77
2023/10/03 07:43:47;;;;;;;0.10;0.10;;;;;;;18.51;74.57;101154.13;5029569;28;20052;-77
2023/10/03 07:46:20;;;;;;;0.10;0.10;;;;;;;18.53;74.86;101171.00;5030019;28;20040;-76
2023/10/03 07:48:46;;;;;;;0.10;0.10;;;;;;;18.50;73.98;101189.94;5029267;28;20033;-77
2023/10/03 07:51:37;;;;;;;0.10;0.10;;;;;;;18.61;74.09;101192.97;5027741;28;20025;-78
2023/10/03 07:54:04;;;;;;;0.10;0.10;;;;;;;18.56;73.85;101211.13;5028692;28;20528;-79
2023/10/03 07:56:30;;;;;;;0.10;0.10;;;;;;;18.51;74.37;101218.53;5027790;28;20030;-78
2023/10/03 07:58:59;;;;;;;0.10;0.10;;;;;;;18.44;74.20;101225.97;5030019;28;20049;-78
2023/10/03 08:01:26;;;;;;;0.10;0.10;;;;;;;18.27;73.76;101242.88;5030022;28;20034;-78
2023/10/03 08:03:53;;;;;;;0.10;0.10;;;;;;;18.39;73.19;101226.22;5029256;28;20037;-78
2023/10/03 08:06:23;;;;;;;0.10;0.10;;;;;;;18.37;73.26;101246.00;5028129;28;20026;-79
2023/10/03 08:08:59;;;;;;;0.10;0.10;;;;;;;18.26;73.58;101241.13;5030698;28;20025;-78
2023/10/03 08:11:28;;;;;;;0.10;0.10;;;;;;;18.35;73.64;101250.56;5029951;28;20026;-79
2023/10/03 08:13:56;;;;;;;0.10;0.10;;;;;;;18.43;73.84;101253.78;5030090;28;20045;-78
2023/10/03 08:16:23;;;;;;;0.10;0.10;;;;;;;18.48;73.21;101270.53;5029262;28;20045;-78
2023/10/03 08:18:58;;;;;;;0.10;0.10;;;;;;;18.43;72.83;101280.59;5031623;28;20040;-79
2023/10/03 08:21:27;;;;;;;0.10;0.10;;;;;;;18.39;72.07;101285.22;5027944;28;20026;-77
2023/10/03 08:23:54;;;;;;;0.10;0.10;;;;;;;18.27;72.49;101313.47;5032245;28;20029;-78
2023/10/03 08:26:21;;;;;;;0.10;0.10;;;;;;;18.18;72.77;101319.25;5031060;28;20033;-83
2023/10/03 08:28:59;;;;;;;0.10;0.10;;;;;;;18.02;73.06;101329.78;5029544;28;20055;-80
2023/10/03 08:31:26;;;;;;;0.20;0.20;;;;;;;17.94;73.35;101327.44;5033625;28;20120;-78
2023/10/03 08:33:55;;;;;;;0.10;0.10;;;;;;;17.76;74.09;101344.28;5032719;28;20041;-76
2023/10/03 08:36:23;;;;;;;0.10;0.10;;;;;;;17.61;75.12;101343.97;5030452;28;20029;-78
2023/10/03 08:38:49;;;;;;;0.10;0.10;;;;;;;17.57;75.16;101349.50;5031956;28;20033;-78
2023/10/03 08:41:25;;;;;;;0.10;0.10;;;;;;;17.74;74.18;101352.34;5031774;28;20127;-78
2023/10/03 08:43:55;;;;;;;0.32;0.32;;;;;;;17.72;74.88;101367.66;5034054;28;20034;-78
2023/10/03 08:46:28;;;;;;;0.10;0.10;;;;;;;17.71;75.44;101359.69;5032780;28;20037;-77
2023/10/03 08:49:00;;;;;;;0.22;0.22;;;;;;;17.68;75.22;101368.69;5030291;28;20032;-79
2023/10/03 08:51:32;;;;;;;0.10;0.10;;;;;;;17.70;74.66;101366.81;5034852;28;20071;-77
2023/10/03 08:54:09;;;;;;;0.10;0.10;;;;;;;17.66;74.75;101365.22;5033092;28;20048;-77
2023/10/03 08:56:35;;;;;;;0.10;0.10;;;;;;;17.71;74.77;101384.66;5032000;28;20091;-77
2023/10/03 08:59:03;;;;;;;0.17;0.17;;;;;;;17.72;75.07;101393.56;5032681;28;20496;-77
2023/10/03 09:01:33;;;;;;;0.10;0.10;;;;;;;17.71;75.22;101400.75;5035982;28;20033;-77
2023/10/03 09:04:05;;;;;;;0.10;0.10;;;;;;;17.77;74.93;101400.50;5033418;28;20121;-78
2023/10/03 09:06:38;;;;;;;0.10;0.10;;;;;;;17.75;74.84;101397.00;5031795;28;20265;-78
2023/10/03 09:09:08;;;;;;;0.10;0.10;;;;;;;17.76;74.65;101406.78;5031423;28;20030;-77
2023/10/03 09:11:38;;;;;;;0.10;0.10;;;;;;;17.87;74.62;101400.09;5029968;28;20087;-78
2023/10/03 09:14:05;;;;;;;0.80;0.80;;;;;;;17.83;74.79;101406.53;5030906;28;20048;-78
2023/10/03 09:16:38;;;;;;;0.10;0.10;;;;;;;17.68;74.93;101408.88;5029202;28;20732;-78
2023/10/03 09:19:05;;;;;;;0.10;0.10;;;;;;;17.57;75.27;101424.53;5030483;28;20052;-77
2023/10/03 09:21:33;;;;;;;0.10;0.10;;;;;;;17.66;74.96;101424.19;5024840;28;20084;-78
2023/10/03 09:24:01;;;;;;;0.10;0.10;;;;;;;17.71;75.43;101437.41;5026788;28;20447;-76
2023/10/03 09:26:46;;;;;;;0.10;0.10;;;;;;;17.85;74.95;101448.41;5028276;28;20042;-76
2023/10/03 09:29:18;;;;;;;0.08;0.08;;;;;;;17.88;74.78;101450.97;5031681;28;20026;-77
2023/10/03 09:31:45;;;;;;;;;;;;;;;17.96;75.02;101464.09;5030290;28;20551;-76
2023/10/03 09:34:14;;;;;;;0.10;0.10;;;;;;;17.79;74.16;101476.34;5030013;28;20339;-77
2023/10/03 09:36:40;;;;;;;0.28;0.28;;;;;;;17.52;73.85;101493.50;5031659;28;20053;-76
2023/10/03 09:39:20;;;;;;;0.15;0.15;;;;;;;17.42;73.41;101498.34;5029836;28;20061;-77
2023/10/03 09:41:51;;;;;;;0.10;0.10;;;;;;;17.29;73.81;101501.47;5028577;28;20026;-77
2023/10/03 09:44:19;;;;;;;0.10;0.10;;;;;;;17.22;73.75;101500.00;5029662;28;20037;-78
2023/10/03 09:46:49;;;;;;;0.10;0.10;;;;;;;17.10;74.05;101512.00;5030207;28;20029;-76
2023/10/03 09:49:15;;;;;;;0.10;0.10;;;;;;;16.98;73.69;101520.50;5029405;28;20044;-78
2023/10/03 09:51:51;;;;;;;0.15;0.15;;;;;;;16.90;74.25;101514.53;5031678;28;20378;-76
2023/10/03 09:54:30;;;;;;;0.10;0.10;;;;;;;16.94;74.25;101513.50;5029918;28;20056;-76
2023/10/03 09:56:57;;;;;;;0.10;0.10;;;;;;;16.94;74.00;101516.19;5029091;28;20501;-76
2023/10/03 09:59:24;;;;;;;0.10;0.10;;;;;;;17.08;73.78;101513.00;5027676;28;20071;-76
2023/10/03 10:01:55;;;;;;;0.10;0.10;;;;;;;17.17;74.29;101519.81;5033518;28;20173;-78
2023/10/03 10:04:24;;;;;;;0.10;0.10;;;;;;;17.24;74.20;101524.03;5032665;28;20040;-77
2023/10/03 10:06:57;;;;;;;0.10;0.10;;;;;;;17.30;74.21;101529.16;5034029;28;20026;-77
2023/10/03 10:12:19;;;;;;;0.10;0.10;;;;;;;17.50;74.02;101531.09;5060860;28;20369;-76
2023/10/03 10:17:51;;;;;;;0.10;0.10;;;;;;;17.48;74.10;101526.72;5104810;27;20396;-78
2023/10/03 10:20:32;;;;;;;0.22;0.22;;;;;;;17.52;73.95;101533.69;5089878;28;20050;-79
2023/10/03 10:25:56;;;;;;;0.00;0.00;;;;;;;17.39;74.54;101546.69;5071927;27;20134;-78
2023/10/03 10:28:26;;;;;;;0.00;0.00;;;;;;;17.43;74.10;101546.53;5059665;28;20407;-79
2023/10/03 10:31:16;;;;;;;0.10;0.10;;;;;;;17.44;74.33;101563.47;5055050;28;20036;-78
2023/10/03 10:33:42;;;;;;;0.00;0.00;;;;;;;17.21;74.59;101569.66;5047924;28;20095;-78
2023/10/03 10:36:10;;;;;;;0.10;0.10;;;;;;;17.26;74.19;101573.94;5053804;28;20025;-76
2023/10/03 10:46:49;;;;;;;0.03;0.03;;;;;;;17.21;74.28;101591.06;5085357;27;20397;-78
2023/10/03 10:52:10;;;;;;;0.10;0.10;;;;;;;17.30;73.75;101604.16;5086732;27;20374;-78
2023/10/03 10:54:39;;;;;;;0.50;0.50;;;;;;;17.25;74.29;101611.47;5065321;28;20029;-76
2023/10/03 10:57:06;;;;;;;0.17;0.17;;;;;;;17.22;74.61;101620.50;5064700;28;20037;-77
2023/10/03 10:59:43;;;;;;;0.03;0.03;;;;;;;17.18;75.06;101636.72;5049900;28;20025;-78
2023/10/03 11:04:56;;;;;;;1.75;1.45;;;;;;;17.04;75.10;101646.09;5069198;28;20361;-77
2023/10/03 11:07:23;;;;;;;0.30;0.30;;;;;;;16.79;75.93;101646.88;5069520;28;20035;-77
2023/10/03 11:09:51;;;;;;;0.20;0.20;;;;;;;17.00;75.51;101643.56;5069555;28;20496;-77
2023/10/03 11:12:27;;;;;;;0.10;0.10;;;;;;;16.95;76.04;101655.31;5073929;28;20032;-77
2023/10/03 11:14:55;;;;;;;0.47;0.45;;;;;;;17.09;75.60;101667.38;5069886;28;20029;-77
2023/10/03 11:17:22;;;;;;;0.10;0.10;;;;;;;17.00;75.66;101681.94;5065309;28;20097;-77
2023/10/03 11:19:49;;;;;;;0.10;0.10;;;;;;;17.01;74.83;101683.69;5063302;28;20043;-77
2023/10/03 11:22:17;;;;;;;0.10;0.10;;;;;;;16.94;75.06;101683.00;5068107;28;20083;-77
2023/10/03 11:24:44;;;;;;;0.30;0.30;;;;;;;16.91;75.51;101690.22;5069509;28;20069;-76
2023/10/03 11:27:23;;;;;;;0.10;0.10;;;;;;;16.82;75.63;101694.97;5069776;28;20028;-77
2023/10/03 11:29:49;;;;;;;0.20;0.20;;;;;;;16.87;74.96;101696.63;5065736;28;20025;-76
2023/10/03 11:35:13;;;;;;;0.10;0.10;;;;;;;16.87;75.33;101704.66;5094906;27;1162009;-76
2023/10/03 11:37:43;;;;;;;0.25;0.25;;;;;;;16.78;75.10;101709.38;5105696;28;20131;-76
2023/10/03 11:40:15;;;;;;;0.10;0.10;;;;;;;16.82;74.74;101716.41;5100322;28;20869;-76
2023/10/03 11:42:51;;;;;;;0.10;0.10;;;;;;;16.62;74.78;101718.81;5105128;28;20036;-77
2023/10/03 11:45:19;;;;;;;0.10;0.10;;;;;;;16.66;74.71;101720.50;5106258;28;20084;-77
2023/10/03 11:48:10;;;;;;;0.10;0.10;;;;;;;16.72;74.55;101712.25;5106533;28;20042;-77
2023/10/03 11:50:38;;;;;;;5.63;1.23;;;;;;;16.63;75.07;101720.56;5111643;28;20567;-77
2023/10/03 11:53:05;;;;;;;0.20;0.20;;;;;;;16.78;75.18;101725.41;5111065;28;20032;-77
2023/10/03 11:55:33;;;;;;;0.10;0.10;;;;;;;17.00;76.02;101719.44;5109686;28;20114;-76
2023/10/03 11:58:00;;;;;;;0.20;0.20;;;;;;;17.11;74.63;101725.28;5107554;28;20070;-77
2023/10/03 12:00:28;;;;;;;0.60;0.60;;;;;;;17.26;74.31;101715.00;5106881;28;20028;-77
2023/10/03 12:02:55;;;;;;;0.10;0.10;;;;;;;17.30;73.93;101719.31;5103950;28;20119;-77